createdAt,value
2023-11-24T00:00:27.518Z,3.40
2023-11-24T00:03:21.287Z,3.40
2023-11-24T00:05:54.985Z,3.20
2023-11-24T00:08:28.689Z,3.30
2023-11-24T00:11:04.663Z,3.40
2023-11-24T00:13:38.073Z,2.50
2023-11-24T00:16:12.815Z,3.30
2023-11-24T00:18:46.382Z,4.20
2023-11-24T00:21:19.820Z,3.30
2023-11-24T00:23:53.585Z,3.60
2023-11-24T00:26:28.084Z,2.40
2023-11-24T00:29:02.747Z,2.50
2023-11-24T00:31:38.045Z,2.70
2023-11-24T00:34:11.679Z,2.50
2023-11-24T00:36:47.584Z,2.70
2023-11-24T00:39:21.130Z,3.70
2023-11-24T00:41:54.512Z,3.50
2023-11-24T00:44:27.940Z,3.50
2023-11-24T00:47:01.507Z,3.30
2023-11-24T00:49:35.901Z,3.10
2023-11-24T00:52:09.827Z,2.90
2023-11-24T00:54:44.001Z,3.20
2023-11-24T00:57:17.611Z,3.10
2023-11-24T00:59:52.064Z,2.80
2023-11-24T01:02:25.706Z,2.80
2023-11-24T01:04:59.179Z,2.40
2023-11-24T01:07:33.416Z,3.30
2023-11-24T01:10:09.070Z,3.00
2023-11-24T01:12:42.704Z,4.10
2023-11-24T01:15:16.882Z,3.30
2023-11-24T01:17:50.385Z,2.50
2023-11-24T01:20:26.286Z,2.30
2023-11-24T01:22:59.790Z,2.20
2023-11-24T01:25:33.160Z,4.60
2023-11-24T01:28:07.314Z,2.90
2023-11-24T01:30:40.888Z,2.70
2023-11-24T01:33:14.535Z,2.10
2023-11-24T01:35:50.296Z,2.30
2023-11-24T01:38:24.676Z,3.50
2023-11-24T01:40:58.586Z,2.10
2023-11-24T01:43:31.981Z,2.30
2023-11-24T01:46:06.615Z,2.50
2023-11-24T01:48:40.118Z,2.10
2023-11-24T01:51:13.582Z,3.00
2023-11-24T01:53:47.021Z,2.70
2023-11-24T01:56:21.308Z,2.70
2023-11-24T01:58:55.264Z,2.30
2023-11-24T02:01:31.464Z,2.40
2023-11-24T02:04:05.377Z,2.90
2023-11-24T02:06:38.873Z,2.70
2023-11-24T02:09:12.407Z,2.20
2023-11-24T02:11:46.000Z,2.00
2023-11-24T02:14:19.414Z,1.90
2023-11-24T02:16:52.878Z,2.00
2023-11-24T02:19:26.388Z,1.70
2023-11-24T02:21:59.876Z,2.10
2023-11-24T02:24:33.353Z,1.80
2023-11-24T02:27:08.382Z,1.90
2023-11-24T02:29:42.229Z,2.20
2023-11-24T02:32:15.987Z,2.00
2023-11-24T02:34:49.884Z,2.60
2023-11-24T02:37:23.305Z,1.90
2023-11-24T02:39:57.002Z,2.10
2023-11-24T02:42:31.407Z,1.90
2023-11-24T02:45:05.129Z,2.60
2023-11-24T02:47:38.857Z,1.40
2023-11-24T02:50:14.014Z,2.00
2023-11-24T02:52:47.412Z,1.60
2023-11-24T02:55:21.214Z,1.70
2023-11-24T02:57:54.639Z,1.70
2023-11-24T03:00:28.294Z,1.10
2023-11-24T03:03:03.288Z,1.70
2023-11-24T03:05:36.739Z,2.00
2023-11-24T03:08:10.637Z,1.80
2023-11-24T03:10:45.025Z,1.50
2023-11-24T03:13:19.204Z,1.60
2023-11-24T03:15:52.602Z,2.60
2023-11-24T03:18:26.125Z,2.30
2023-11-24T03:20:59.577Z,2.00
2023-11-24T03:23:33.037Z,2.50
2023-11-24T03:26:06.567Z,1.70
2023-11-24T03:28:40.240Z,1.50
2023-11-24T03:31:13.709Z,1.70
2023-11-24T03:33:47.409Z,2.90
2023-11-24T03:36:21.258Z,1.70
2023-11-24T03:38:54.842Z,2.10
2023-11-24T03:41:28.302Z,2.30
2023-11-24T03:44:01.884Z,2.10
2023-11-24T03:46:35.346Z,2.20
2023-11-24T03:49:09.102Z,2.00
2023-11-24T03:51:43.059Z,1.60
2023-11-24T03:54:17.130Z,1.20
2023-11-24T03:56:50.645Z,1.60
2023-11-24T03:59:24.374Z,2.70
2023-11-24T04:01:57.795Z,1.20
2023-11-24T04:04:31.422Z,1.30
2023-11-24T04:07:05.070Z,0.90
2023-11-24T04:09:38.662Z,1.60
2023-11-24T04:12:12.555Z,1.40
2023-11-24T04:14:46.035Z,1.80
2023-11-24T04:17:19.586Z,1.70
2023-11-24T04:19:52.957Z,1.40
2023-11-24T04:22:26.671Z,3.80
2023-11-24T04:25:00.052Z,1.30
2023-11-24T04:27:33.952Z,1.20
2023-11-24T04:30:09.136Z,1.50
2023-11-24T04:32:42.665Z,1.40
2023-11-24T04:35:16.980Z,1.30
2023-11-24T04:37:52.084Z,1.80
2023-11-24T04:40:25.752Z,1.50
2023-11-24T04:42:59.267Z,1.60
2023-11-24T04:45:33.255Z,0.70
2023-11-24T04:48:08.055Z,1.80
2023-11-24T04:50:41.539Z,1.60
2023-11-24T04:53:15.315Z,1.30
2023-11-24T04:56:14.028Z,1.50
2023-11-24T04:59:29.456Z,1.50
2023-11-24T05:02:37.209Z,1.20
2023-11-24T05:05:43.753Z,1.00
2023-11-24T05:09:20.830Z,1.40
2023-11-24T05:11:59.414Z,1.00
2023-11-24T05:14:33.761Z,0.80
2023-11-24T05:17:47.912Z,1.20
2023-11-24T05:20:59.948Z,1.00
2023-11-24T05:26:51.020Z,1.20
2023-11-24T05:29:24.671Z,1.50
2023-11-24T05:31:58.223Z,0.90
2023-11-24T05:34:31.652Z,3.00
2023-11-24T05:37:08.921Z,2.80
2023-11-24T05:39:42.553Z,1.10
2023-11-24T05:42:16.546Z,1.00
2023-11-24T05:44:50.247Z,1.70
2023-11-24T05:47:23.723Z,1.40
2023-11-24T05:49:57.573Z,1.10
2023-11-24T05:52:30.961Z,2.50
2023-11-24T05:55:04.738Z,1.60
2023-11-24T05:57:38.597Z,1.90
2023-11-24T06:00:18.172Z,1.30
2023-11-24T06:02:51.820Z,0.90
2023-11-24T06:05:25.327Z,1.40
2023-11-24T06:07:59.498Z,0.70
2023-11-24T06:10:33.096Z,1.20
2023-11-24T06:13:06.508Z,0.90
2023-11-24T06:15:39.993Z,1.10
2023-11-24T06:18:14.099Z,1.80
2023-11-24T06:20:47.638Z,2.60
2023-11-24T06:23:22.345Z,5.20
2023-11-24T06:25:55.930Z,4.50
2023-11-24T06:28:29.670Z,1.80
2023-11-24T06:31:04.281Z,1.50
2023-11-24T06:33:37.910Z,3.20
2023-11-24T06:36:12.725Z,1.70
2023-11-24T06:38:48.812Z,1.40
2023-11-24T06:41:22.302Z,1.50
2023-11-24T06:43:55.775Z,1.70
2023-11-24T06:46:29.170Z,1.40
2023-11-24T06:49:02.816Z,2.50
2023-11-24T06:51:36.397Z,1.50
2023-11-24T06:54:10.320Z,1.40
2023-11-24T06:56:43.782Z,3.70
2023-11-24T06:59:18.091Z,2.90
2023-11-24T07:01:52.011Z,2.20
2023-11-24T07:04:25.621Z,2.40
2023-11-24T07:06:59.527Z,1.90
2023-11-24T07:09:33.089Z,1.30
2023-11-24T07:12:07.187Z,3.70
2023-11-24T07:14:40.584Z,2.00
2023-11-24T07:17:14.256Z,2.60
2023-11-24T07:19:47.646Z,3.70
2023-11-24T07:22:22.423Z,2.20
2023-11-24T07:24:56.585Z,2.10
2023-11-24T07:27:32.408Z,3.70
2023-11-24T07:30:06.848Z,2.40
2023-11-24T07:32:40.686Z,4.50
2023-11-24T07:35:15.322Z,4.80
2023-11-24T07:37:49.313Z,2.50
2023-11-24T07:40:23.064Z,3.50
2023-11-24T07:42:56.645Z,2.10
2023-11-24T07:45:30.313Z,1.90
2023-11-24T07:48:03.871Z,3.90
2023-11-24T07:50:38.310Z,3.20
2023-11-24T07:53:14.685Z,2.00
2023-11-24T07:55:48.383Z,2.20
2023-11-24T07:58:22.099Z,3.40
2023-11-24T08:00:55.712Z,2.30
2023-11-24T08:03:30.839Z,3.70
2023-11-24T08:06:09.070Z,1.70
2023-11-24T08:08:44.876Z,1.90
2023-11-24T08:11:18.552Z,1.50
2023-11-24T08:13:52.419Z,3.20
2023-11-24T08:16:26.215Z,2.20
2023-11-24T08:18:59.728Z,4.10
2023-11-24T08:21:33.587Z,3.80
2023-11-24T08:24:08.056Z,1.40
2023-11-24T08:26:42.522Z,1.80
2023-11-24T08:29:16.863Z,3.90
2023-11-24T08:31:51.034Z,2.10
2023-11-24T08:34:24.462Z,3.40
2023-11-24T08:36:58.047Z,2.30
2023-11-24T08:39:31.785Z,3.90
2023-11-24T08:42:05.483Z,3.90
2023-11-24T08:44:40.365Z,3.00
2023-11-24T08:47:14.535Z,2.50
2023-11-24T08:49:47.951Z,3.00
2023-11-24T08:52:21.592Z,2.40
2023-11-24T08:54:55.437Z,4.30
2023-11-24T08:57:29.079Z,5.40
2023-11-24T09:00:02.500Z,4.10
2023-11-24T09:02:36.365Z,4.30
2023-11-24T09:05:11.729Z,2.00
2023-11-24T09:07:45.751Z,3.20
2023-11-24T09:10:20.326Z,3.20
2023-11-24T09:12:54.182Z,3.70
2023-11-24T09:15:27.746Z,6.20
2023-11-24T09:18:02.677Z,3.30
2023-11-24T09:20:36.063Z,3.50
2023-11-24T09:23:10.468Z,7.80
2023-11-24T09:25:44.203Z,4.60
2023-11-24T09:28:17.875Z,3.50
2023-11-24T09:30:51.399Z,4.90
2023-11-24T09:33:24.902Z,5.00
2023-11-24T09:35:58.495Z,5.00
2023-11-24T09:38:32.383Z,7.10
2023-11-24T09:41:11.071Z,6.60
2023-11-24T09:43:44.876Z,2.70
2023-11-24T09:46:18.665Z,7.40
2023-11-24T09:48:52.906Z,6.30
2023-11-24T09:51:28.103Z,4.30
2023-11-24T09:54:03.939Z,5.00
2023-11-24T09:56:37.667Z,4.40
2023-11-24T09:59:11.696Z,6.80
2023-11-24T10:01:45.323Z,5.70
2023-11-24T10:04:19.184Z,4.10
2023-11-24T10:06:55.353Z,3.70
2023-11-24T10:09:31.371Z,4.80
2023-11-24T10:12:06.824Z,4.50
2023-11-24T10:14:44.685Z,5.00
2023-11-24T10:17:18.439Z,2.80
2023-11-24T10:19:53.146Z,5.70
2023-11-24T10:22:30.456Z,3.00
2023-11-24T10:25:08.768Z,5.00
2023-11-24T10:27:42.653Z,3.10
2023-11-24T10:30:19.634Z,3.00
2023-11-24T10:32:53.272Z,6.30
2023-11-24T10:35:27.074Z,4.20
2023-11-24T10:38:02.686Z,3.60
2023-11-24T10:40:39.260Z,5.00
2023-11-24T10:43:13.037Z,3.90
2023-11-24T10:45:50.897Z,3.90
2023-11-24T10:48:35.099Z,13.00
2023-11-24T10:51:15.327Z,5.00
2023-11-24T10:53:53.622Z,6.70
2023-11-24T10:56:31.059Z,8.20
2023-11-24T10:59:07.233Z,8.00
2023-11-24T11:01:40.842Z,5.60
2023-11-24T11:04:15.871Z,8.20
2023-11-24T11:07:00.103Z,4.80
2023-11-24T11:09:48.721Z,3.90
2023-11-24T11:12:44.562Z,4.00
2023-11-24T11:15:19.161Z,5.10
2023-11-24T11:18:09.835Z,11.00
2023-11-24T11:20:45.619Z,4.60
2023-11-24T11:23:19.338Z,4.50
2023-11-24T11:25:54.997Z,6.60
2023-11-24T11:28:43.448Z,9.90
2023-11-24T11:31:38.980Z,9.90
2023-11-24T11:34:18.843Z,5.20
2023-11-24T11:37:07.395Z,8.20
2023-11-24T11:39:54.608Z,5.70
2023-11-24T11:42:52.505Z,5.80
2023-11-24T11:48:05.850Z,7.10
2023-11-24T11:50:47.074Z,5.70
2023-11-24T11:53:20.480Z,5.20
2023-11-24T11:55:56.673Z,6.50
2023-11-24T11:58:35.625Z,10.20
2023-11-24T12:01:10.738Z,9.00
2023-11-24T12:03:44.936Z,7.40
2023-11-24T12:06:18.396Z,8.60
2023-11-24T12:08:51.821Z,6.20
2023-11-24T12:11:25.262Z,6.80
2023-11-24T12:13:58.644Z,6.40
2023-11-24T12:16:34.754Z,12.80
2023-11-24T12:19:09.061Z,10.80
2023-11-24T12:21:47.358Z,9.50
2023-11-24T12:24:23.478Z,7.50
2023-11-24T12:26:58.629Z,6.90
2023-11-24T12:29:32.619Z,5.30
2023-11-24T12:32:11.240Z,7.60
2023-11-24T12:34:47.845Z,6.40
2023-11-24T12:37:21.406Z,8.70
2023-11-24T12:39:55.470Z,12.20
2023-11-24T12:42:32.050Z,31.90
2023-11-24T12:45:08.316Z,32.30
2023-11-24T12:47:42.857Z,18.50
2023-11-24T12:50:18.865Z,10.90
2023-11-24T12:52:52.305Z,6.90
2023-11-24T12:55:26.007Z,10.70
2023-11-24T12:57:59.651Z,48.00
2023-11-24T13:00:37.548Z,53.50
2023-11-24T13:03:11.797Z,34.50
2023-11-24T13:05:45.789Z,59.50
2023-11-24T13:08:19.260Z,51.60
2023-11-24T13:10:54.694Z,41.40
2023-11-24T13:13:28.174Z,17.70
2023-11-24T13:16:02.960Z,16.10
2023-11-24T13:18:39.104Z,15.20
2023-11-24T13:21:12.683Z,13.50
2023-11-24T13:23:46.946Z,13.30
2023-11-24T13:26:20.634Z,14.00
2023-11-24T13:28:54.749Z,17.10
2023-11-24T13:31:30.042Z,14.20
2023-11-24T13:34:04.764Z,15.20
2023-11-24T13:36:38.307Z,13.50
2023-11-24T13:39:13.981Z,10.70
2023-11-24T13:41:48.329Z,16.50
2023-11-24T13:44:22.138Z,12.90
2023-11-24T13:46:57.976Z,10.60
2023-11-24T13:49:31.704Z,9.90
2023-11-24T13:52:06.106Z,13.20
2023-11-24T13:54:39.567Z,11.10
2023-11-24T13:57:13.378Z,12.30
2023-11-24T13:59:47.393Z,9.90
2023-11-24T14:02:20.997Z,10.70
2023-11-24T14:04:55.826Z,10.00
2023-11-24T14:07:29.337Z,11.00
2023-11-24T14:10:05.505Z,8.30
2023-11-24T14:12:38.918Z,9.00
2023-11-24T14:15:14.935Z,8.60
2023-11-24T14:17:48.687Z,8.20
2023-11-24T14:20:22.441Z,6.70
2023-11-24T14:22:56.141Z,7.70
2023-11-24T14:25:31.736Z,9.00
2023-11-24T14:28:05.375Z,8.10
2023-11-24T14:30:40.095Z,8.20
2023-11-24T14:33:13.875Z,6.50
2023-11-24T14:35:47.377Z,8.90
2023-11-24T14:38:23.168Z,7.50
2023-11-24T14:40:56.653Z,6.20
2023-11-24T14:43:30.252Z,7.30
2023-11-24T14:46:04.022Z,6.40
2023-11-24T14:48:37.490Z,5.90
2023-11-24T14:51:12.223Z,10.20
2023-11-24T14:53:45.671Z,8.50
2023-11-24T14:56:19.640Z,7.50
2023-11-24T14:58:53.572Z,6.50
2023-11-24T15:01:32.891Z,6.30
2023-11-24T15:04:09.025Z,8.20
2023-11-24T15:06:42.453Z,6.90
2023-11-24T15:09:16.815Z,8.20
2023-11-24T15:11:53.472Z,6.90
2023-11-24T15:14:34.430Z,8.90
2023-11-24T15:17:12.334Z,7.80
2023-11-24T15:19:50.060Z,7.80
2023-11-24T15:22:28.120Z,5.60
2023-11-24T15:25:02.008Z,5.80
2023-11-24T15:27:35.538Z,7.20
2023-11-24T15:30:13.105Z,7.10
2023-11-24T15:32:46.494Z,7.10
2023-11-24T15:35:19.979Z,6.60
2023-11-24T15:37:53.593Z,8.40
2023-11-24T15:40:27.140Z,7.20
2023-11-24T15:43:00.675Z,7.10
2023-11-24T15:45:34.242Z,5.70
2023-11-24T15:48:09.061Z,6.60
2023-11-24T15:50:44.424Z,6.80
2023-11-24T15:53:21.140Z,7.20
2023-11-24T15:55:54.609Z,5.50
2023-11-24T15:58:29.096Z,5.90
2023-11-24T16:01:06.922Z,7.90
2023-11-24T16:03:40.798Z,6.70
2023-11-24T16:06:19.028Z,6.30
2023-11-24T16:08:55.910Z,7.40
2023-11-24T16:11:32.978Z,7.50
2023-11-24T16:14:07.469Z,6.40
2023-11-24T16:16:46.764Z,7.00
2023-11-24T16:19:20.811Z,8.00
2023-11-24T16:21:54.259Z,6.10
2023-11-24T16:24:28.483Z,6.90
2023-11-24T16:27:03.785Z,9.10
2023-11-24T16:29:37.290Z,7.50
2023-11-24T16:32:11.234Z,7.60
2023-11-24T16:34:46.841Z,6.60
2023-11-24T16:37:20.515Z,7.00
2023-11-24T16:39:55.747Z,7.10
2023-11-24T16:42:30.039Z,8.10
2023-11-24T16:45:03.597Z,8.00
2023-11-24T16:47:37.742Z,7.30
2023-11-24T16:50:12.775Z,7.40
2023-11-24T16:52:47.748Z,7.90
2023-11-24T16:55:21.689Z,9.50
2023-11-24T16:57:55.187Z,7.60
2023-11-24T17:00:29.751Z,8.60
2023-11-24T17:03:03.273Z,7.30
2023-11-24T17:05:37.822Z,8.30
2023-11-24T17:08:11.227Z,8.40
2023-11-24T17:10:46.361Z,8.00
2023-11-24T17:13:20.008Z,8.60
2023-11-24T17:15:53.480Z,7.50
2023-11-24T17:18:27.151Z,8.00
2023-11-24T17:21:00.694Z,8.30
2023-11-24T17:23:35.044Z,8.60
2023-11-24T17:26:10.862Z,9.40
2023-11-24T17:28:48.047Z,8.60
2023-11-24T17:31:24.459Z,9.10
2023-11-24T17:33:59.053Z,9.20
2023-11-24T17:36:34.420Z,10.10
2023-11-24T17:39:12.781Z,9.40
2023-11-24T17:41:46.326Z,10.00
2023-11-24T17:44:20.236Z,10.20
2023-11-24T17:46:53.902Z,11.60
2023-11-24T17:49:27.975Z,10.50
2023-11-24T17:52:03.126Z,12.90
2023-11-24T17:54:36.928Z,12.30
2023-11-24T17:57:10.690Z,10.40
2023-11-24T17:59:44.547Z,10.70
2023-11-24T18:02:18.000Z,10.60
2023-11-24T18:04:52.645Z,13.50
2023-11-24T18:07:26.867Z,11.70
2023-11-24T18:10:00.476Z,9.60
2023-11-24T18:12:34.148Z,12.60
2023-11-24T18:15:11.210Z,11.70
2023-11-24T18:17:44.853Z,10.30
2023-11-24T18:20:18.924Z,10.00
2023-11-24T18:22:53.548Z,12.50
2023-11-24T18:25:27.199Z,11.60
2023-11-24T18:28:00.679Z,14.40
2023-11-24T18:30:34.894Z,11.40
2023-11-24T18:33:09.610Z,11.20
2023-11-24T18:35:44.677Z,12.20
2023-11-24T18:38:18.432Z,11.20
2023-11-24T18:40:53.295Z,12.90
2023-11-24T18:43:36.697Z,12.80
2023-11-24T18:46:13.414Z,12.60
2023-11-24T18:48:46.948Z,11.20
2023-11-24T18:51:20.652Z,15.90
2023-11-24T18:53:55.124Z,13.90
2023-11-24T18:56:28.696Z,11.80
2023-11-24T18:59:02.288Z,12.90
2023-11-24T19:01:35.833Z,12.60
2023-11-24T19:04:09.668Z,12.90
2023-11-24T19:06:43.272Z,12.40
2023-11-24T19:09:17.453Z,11.40
2023-11-24T19:11:50.889Z,13.10
2023-11-24T19:14:24.664Z,13.20
2023-11-24T19:16:58.321Z,14.30
2023-11-24T19:19:32.583Z,12.70
2023-11-24T19:22:06.559Z,12.80
2023-11-24T19:24:40.229Z,12.30
2023-11-24T19:27:14.561Z,13.10
2023-11-24T19:29:48.008Z,11.70
2023-11-24T19:32:23.112Z,12.60
2023-11-24T19:34:56.748Z,11.40
2023-11-24T19:37:30.366Z,12.60
2023-11-24T19:40:06.817Z,14.60
2023-11-24T19:42:40.434Z,12.70
2023-11-24T19:45:15.135Z,11.30
2023-11-24T19:47:49.198Z,10.20
2023-11-24T19:50:23.190Z,13.10
2023-11-24T19:52:57.111Z,14.30
2023-11-24T19:55:30.733Z,14.40
2023-11-24T19:58:04.862Z,13.50
2023-11-24T20:00:38.310Z,11.30
2023-11-24T20:03:11.880Z,12.30
2023-11-24T20:05:45.552Z,14.20
2023-11-24T20:08:18.933Z,12.40
2023-11-24T20:10:54.030Z,12.50
2023-11-24T20:13:27.611Z,12.10
2023-11-24T20:16:02.085Z,11.00
2023-11-24T20:18:36.038Z,12.00
2023-11-24T20:21:10.113Z,12.90
2023-11-24T20:23:43.642Z,12.90
2023-11-24T20:26:17.124Z,11.70
2023-11-24T20:28:53.228Z,12.90
2023-11-24T20:31:26.989Z,10.90
2023-11-24T20:34:00.609Z,11.30
2023-11-24T20:36:34.721Z,14.70
2023-11-24T20:39:08.799Z,16.30
2023-11-24T20:41:45.620Z,13.70
2023-11-24T20:44:19.552Z,12.70
2023-11-24T20:46:54.435Z,13.70
2023-11-24T20:49:29.302Z,12.20
2023-11-24T20:52:04.969Z,12.10
2023-11-24T20:54:38.941Z,12.70
2023-11-24T20:57:12.361Z,13.30
2023-11-24T20:59:47.260Z,11.10
2023-11-24T21:02:21.655Z,11.40
2023-11-24T21:04:55.206Z,13.10
2023-11-24T21:07:28.855Z,12.80
2023-11-24T21:10:03.259Z,13.40
2023-11-24T21:12:42.550Z,11.30
2023-11-24T21:15:16.522Z,14.00
2023-11-24T21:17:50.779Z,11.30
2023-11-24T21:20:24.636Z,10.70
2023-11-24T21:22:58.099Z,10.10
2023-11-24T21:25:31.945Z,10.00
2023-11-24T21:28:05.782Z,13.90
2023-11-24T21:30:39.296Z,10.90
2023-11-24T21:33:13.194Z,11.40
2023-11-24T21:35:47.093Z,12.30
2023-11-24T21:38:22.198Z,10.20
2023-11-24T21:40:55.822Z,12.40
2023-11-24T21:43:31.877Z,11.70
2023-11-24T21:46:05.426Z,10.10
2023-11-24T21:48:38.926Z,10.60
2023-11-24T21:51:12.485Z,11.20
2023-11-24T21:53:46.383Z,11.90
2023-11-24T21:56:29.965Z,11.00
2023-11-24T21:59:03.764Z,11.00
2023-11-24T22:01:37.720Z,11.40
2023-11-24T22:04:11.919Z,12.60
2023-11-24T22:06:45.403Z,9.60
2023-11-24T22:09:20.679Z,11.30
2023-11-24T22:11:54.184Z,9.40
2023-11-24T22:14:27.785Z,11.50
2023-11-24T22:17:01.957Z,10.90
2023-11-24T22:19:35.647Z,10.80
2023-11-24T22:22:09.288Z,10.50
2023-11-24T22:24:44.323Z,12.90
2023-11-24T22:27:18.363Z,10.60
2023-11-24T22:30:01.366Z,11.70
2023-11-24T22:32:38.311Z,11.00
2023-11-24T22:35:13.099Z,10.60
2023-11-24T22:37:46.817Z,11.10
2023-11-24T22:40:21.009Z,11.90
2023-11-24T22:42:54.398Z,12.00
2023-11-24T22:45:27.774Z,10.60
2023-11-24T22:48:01.294Z,10.20
2023-11-24T22:50:35.800Z,10.80
2023-11-24T22:53:09.205Z,10.30
2023-11-24T22:55:42.919Z,8.80
2023-11-24T22:58:17.080Z,11.40
2023-11-24T23:00:51.654Z,13.30
2023-11-24T23:03:25.241Z,10.70
2023-11-24T23:05:58.918Z,10.60
2023-11-24T23:08:32.825Z,10.90
2023-11-24T23:11:06.550Z,12.10
2023-11-24T23:13:42.055Z,8.00
2023-11-24T23:16:16.056Z,10.30
2023-11-24T23:18:50.613Z,10.60
2023-11-24T23:21:24.563Z,12.10
2023-11-24T23:23:58.278Z,10.20
2023-11-24T23:26:31.748Z,9.80
2023-11-24T23:29:05.210Z,12.10
2023-11-24T23:31:38.996Z,9.40
2023-11-24T23:34:13.050Z,12.50
2023-11-24T23:36:46.506Z,10.30
2023-11-24T23:39:20.506Z,10.30
2023-11-24T23:41:54.367Z,9.10
2023-11-24T23:44:27.828Z,9.00
2023-11-24T23:47:01.655Z,12.40
2023-11-24T23:49:35.159Z,10.40
2023-11-24T23:52:09.336Z,9.30
2023-11-24T23:54:42.759Z,9.00
2023-11-24T23:57:16.278Z,10.30
2023-11-24T23:59:50.096Z,9.50
